sensor_id;sensor_type;location;lat;lon;timestamp;P1;durP1;ratioP1;P2;durP2;ratioP2
44446;SDS011;30152;52.066;5.358;2022-10-31T07:37:40;24.05;;;12.57;;
44446;SDS011;30152;52.066;5.358;2022-10-31T07:40:07;21.65;;;10.80;;
44446;SDS011;30152;52.066;5.358;2022-10-31T07:42:40;25.25;;;11.18;;
44446;SDS011;30152;52.066;5.358;2022-10-31T07:45:08;23.83;;;11.70;;
44446;SDS011;30152;52.066;5.358;2022-10-31T07:47:42;22.23;;;11.57;;
44446;SDS011;30152;52.066;5.358;2022-10-31T07:50:14;22.85;;;10.38;;
44446;SDS011;30152;52.066;5.358;2022-10-31T07:52:41;31.25;;;11.77;;
44446;SDS011;30152;52.066;5.358;2022-10-31T07:55:08;21.83;;;10.68;;
44446;SDS011;30152;52.066;5.358;2022-10-31T07:57:34;19.80;;;10.20;;
44446;SDS011;30152;52.066;5.358;2022-10-31T08:00:02;20.02;;;10.07;;
44446;SDS011;30152;52.066;5.358;2022-10-31T08:02:29;22.48;;;10.88;;
44446;SDS011;30152;52.066;5.358;2022-10-31T08:04:55;24.98;;;11.27;;
44446;SDS011;30152;52.066;5.358;2022-10-31T08:07:21;21.27;;;10.75;;
44446;SDS011;30152;52.066;5.358;2022-10-31T08:09:47;26.20;;;11.18;;
44446;SDS011;30152;52.066;5.358;2022-10-31T08:12:12;25.48;;;11.98;;
44446;SDS011;30152;52.066;5.358;2022-10-31T08:14:38;28.05;;;13.02;;
44446;SDS011;30152;52.066;5.358;2022-10-31T08:17:04;22.85;;;12.02;;
44446;SDS011;30152;52.066;5.358;2022-10-31T08:19:30;28.60;;;13.63;;
44446;SDS011;30152;52.066;5.358;2022-10-31T08:21:56;26.23;;;13.35;;
44446;SDS011;30152;52.066;5.358;2022-10-31T08:24:23;26.15;;;13.85;;
44446;SDS011;30152;52.066;5.358;2022-10-31T08:26:49;26.50;;;12.65;;
44446;SDS011;30152;52.066;5.358;2022-10-31T08:29:15;24.88;;;11.75;;
44446;SDS011;30152;52.066;5.358;2022-10-31T08:31:41;22.10;;;11.48;;
44446;SDS011;30152;52.066;5.358;2022-10-31T08:34:07;26.73;;;11.18;;
44446;SDS011;30152;52.066;5.358;2022-10-31T08:36:34;26.90;;;12.63;;
44446;SDS011;30152;52.066;5.358;2022-10-31T08:39:00;27.65;;;13.75;;
44446;SDS011;30152;52.066;5.358;2022-10-31T08:41:26;27.60;;;13.63;;
44446;SDS011;30152;52.066;5.358;2022-10-31T08:43:53;23.52;;;13.65;;
44446;SDS011;30152;52.066;5.358;2022-10-31T08:46:19;28.30;;;13.93;;
44446;SDS011;30152;52.066;5.358;2022-10-31T08:48:47;31.05;;;13.38;;
44446;SDS011;30152;52.066;5.358;2022-10-31T08:51:13;25.63;;;12.60;;
44446;SDS011;30152;52.066;5.358;2022-10-31T08:53:39;25.90;;;12.48;;
44446;SDS011;30152;52.066;5.358;2022-10-31T08:56:05;21.23;;;12.25;;
44446;SDS011;30152;52.066;5.358;2022-10-31T08:58:31;25.27;;;12.75;;
44446;SDS011;30152;52.066;5.358;2022-10-31T09:00:58;23.88;;;12.77;;
44446;SDS011;30152;52.066;5.358;2022-10-31T09:03:26;25.05;;;13.40;;
44446;SDS011;30152;52.066;5.358;2022-10-31T09:05:59;29.42;;;14.85;;
44446;SDS011;30152;52.066;5.358;2022-10-31T09:08:28;28.63;;;15.00;;
44446;SDS011;30152;52.066;5.358;2022-10-31T09:10:56;29.13;;;15.13;;
44446;SDS011;30152;52.066;5.358;2022-10-31T09:13:22;31.88;;;17.05;;
44446;SDS011;30152;52.066;5.358;2022-10-31T09:15:48;30.88;;;17.90;;
44446;SDS011;30152;52.066;5.358;2022-10-31T09:18:15;34.92;;;18.40;;
44446;SDS011;30152;52.066;5.358;2022-10-31T09:20:42;30.67;;;17.27;;
44446;SDS011;30152;52.066;5.358;2022-10-31T09:23:10;29.23;;;16.83;;
44446;SDS011;30152;52.066;5.358;2022-10-31T09:25:37;29.10;;;15.68;;
44446;SDS011;30152;52.066;5.358;2022-10-31T09:28:04;25.77;;;15.43;;
44446;SDS011;30152;52.066;5.358;2022-10-31T09:30:32;30.20;;;15.95;;
44446;SDS011;30152;52.066;5.358;2022-10-31T09:32:59;26.77;;;16.08;;
44446;SDS011;30152;52.066;5.358;2022-10-31T09:35:29;33.05;;;16.02;;
44446;SDS011;30152;52.066;5.358;2022-10-31T09:37:56;28.25;;;16.15;;
44446;SDS011;30152;52.066;5.358;2022-10-31T09:45:47;34.15;;;17.85;;
44446;SDS011;30152;52.066;5.358;2022-10-31T09:48:27;33.70;;;18.35;;
44446;SDS011;30152;52.066;5.358;2022-10-31T09:51:16;32.88;;;19.00;;
44446;SDS011;30152;52.066;5.358;2022-10-31T09:53:52;31.23;;;17.50;;
44446;SDS011;30152;52.066;5.358;2022-10-31T09:56:30;31.42;;;18.73;;
44446;SDS011;30152;52.066;5.358;2022-10-31T09:58:57;29.90;;;18.73;;
44446;SDS011;30152;52.066;5.358;2022-10-31T10:04:32;32.15;;;18.63;;
44446;SDS011;30152;52.066;5.358;2022-10-31T10:07:05;27.92;;;18.33;;
44446;SDS011;30152;52.066;5.358;2022-10-31T10:09:38;29.85;;;19.42;;
44446;SDS011;30152;52.066;5.358;2022-10-31T10:12:47;32.13;;;19.13;;
44446;SDS011;30152;52.066;5.358;2022-10-31T10:20:53;25.00;;;14.80;;
44446;SDS011;30152;52.066;5.358;2022-10-31T10:26:20;25.30;;;14.25;;
44446;SDS011;30152;52.066;5.358;2022-10-31T10:28:48;26.75;;;14.73;;
44446;SDS011;30152;52.066;5.358;2022-10-31T10:31:20;25.80;;;15.07;;
44446;SDS011;30152;52.066;5.358;2022-10-31T10:33:55;30.38;;;15.40;;
44446;SDS011;30152;52.066;5.358;2022-10-31T10:36:30;27.90;;;16.42;;
44446;SDS011;30152;52.066;5.358;2022-10-31T10:39:15;30.52;;;14.73;;
44446;SDS011;30152;52.066;5.358;2022-10-31T10:41:43;32.85;;;16.05;;
44446;SDS011;30152;52.066;5.358;2022-10-31T10:44:32;29.17;;;14.95;;
44446;SDS011;30152;52.066;5.358;2022-10-31T10:47:17;31.75;;;16.88;;
44446;SDS011;30152;52.066;5.358;2022-10-31T10:50:02;31.70;;;16.88;;
44446;SDS011;30152;52.066;5.358;2022-10-31T10:55:30;35.47;;;17.48;;
44446;SDS011;30152;52.066;5.358;2022-10-31T10:58:08;35.60;;;19.58;;
44446;SDS011;30152;52.066;5.358;2022-10-31T11:00:40;36.45;;;18.63;;
44446;SDS011;30152;52.066;5.358;2022-10-31T11:03:07;37.17;;;19.10;;
44446;SDS011;30152;52.066;5.358;2022-10-31T11:05:35;40.00;;;19.00;;
44446;SDS011;30152;52.066;5.358;2022-10-31T11:08:05;35.53;;;17.40;;
44446;SDS011;30152;52.066;5.358;2022-10-31T11:10:31;38.30;;;18.48;;
44446;SDS011;30152;52.066;5.358;2022-10-31T11:15:53;32.03;;;16.70;;
44446;SDS011;30152;52.066;5.358;2022-10-31T11:18:30;36.20;;;17.58;;
44446;SDS011;30152;52.066;5.358;2022-10-31T11:20:58;38.90;;;16.77;;
44446;SDS011;30152;52.066;5.358;2022-10-31T11:23:26;35.33;;;17.27;;
44446;SDS011;30152;52.066;5.358;2022-10-31T11:25:57;30.98;;;16.20;;
44446;SDS011;30152;52.066;5.358;2022-10-31T11:28:28;34.65;;;17.05;;
44446;SDS011;30152;52.066;5.358;2022-10-31T11:30:56;34.33;;;17.73;;
44446;SDS011;30152;52.066;5.358;2022-10-31T11:36:20;35.30;;;16.65;;
44446;SDS011;30152;52.066;5.358;2022-10-31T11:38:48;37.70;;;18.10;;
44446;SDS011;30152;52.066;5.358;2022-10-31T11:41:16;33.65;;;17.95;;
44446;SDS011;30152;52.066;5.358;2022-10-31T11:44:18;36.40;;;19.33;;
44446;SDS011;30152;52.066;5.358;2022-10-31T11:46:55;38.38;;;17.77;;
44446;SDS011;30152;52.066;5.358;2022-10-31T11:52:28;34.20;;;18.08;;
44446;SDS011;30152;52.066;5.358;2022-10-31T11:55:00;38.05;;;20.80;;
44446;SDS011;30152;52.066;5.358;2022-10-31T11:57:45;39.90;;;20.15;;
44446;SDS011;30152;52.066;5.358;2022-10-31T12:00:26;39.95;;;20.05;;
44446;SDS011;30152;52.066;5.358;2022-10-31T12:03:04;37.55;;;19.60;;
44446;SDS011;30152;52.066;5.358;2022-10-31T12:05:39;44.67;;;21.30;;
44446;SDS011;30152;52.066;5.358;2022-10-31T12:08:09;45.20;;;20.75;;
44446;SDS011;30152;52.066;5.358;2022-10-31T12:10:48;43.47;;;21.58;;
44446;SDS011;30152;52.066;5.358;2022-10-31T12:13:33;40.38;;;21.40;;
44446;SDS011;30152;52.066;5.358;2022-10-31T12:18:58;49.40;;;22.77;;
44446;SDS011;30152;52.066;5.358;2022-10-31T12:24:19;41.08;;;22.30;;
44446;SDS011;30152;52.066;5.358;2022-10-31T12:26:59;55.13;;;25.40;;
44446;SDS011;30152;52.066;5.358;2022-10-31T12:29:33;44.50;;;23.25;;
44446;SDS011;30152;52.066;5.358;2022-10-31T12:32:16;55.25;;;24.38;;
44446;SDS011;30152;52.066;5.358;2022-10-31T12:51:08;51.38;;;24.15;;
44446;SDS011;30152;52.066;5.358;2022-10-31T12:59:34;43.55;;;23.58;;
44446;SDS011;30152;52.066;5.358;2022-10-31T13:04:43;47.03;;;24.25;;
44446;SDS011;30152;52.066;5.358;2022-10-31T13:07:15;53.95;;;24.98;;
44446;SDS011;30152;52.066;5.358;2022-10-31T13:10:16;52.25;;;25.58;;
44446;SDS011;30152;52.066;5.358;2022-10-31T13:12:50;48.30;;;24.70;;
44446;SDS011;30152;52.066;5.358;2022-10-31T13:15:19;53.67;;;25.70;;
44446;SDS011;30152;52.066;5.358;2022-10-31T13:17:48;52.60;;;25.60;;
44446;SDS011;30152;52.066;5.358;2022-10-31T13:20:22;57.03;;;25.00;;
44446;SDS011;30152;52.066;5.358;2022-10-31T13:22:56;53.65;;;25.80;;
44446;SDS011;30152;52.066;5.358;2022-10-31T13:25:43;56.08;;;25.67;;
44446;SDS011;30152;52.066;5.358;2022-10-31T13:28:17;49.97;;;25.60;;
44446;SDS011;30152;52.066;5.358;2022-10-31T13:30:47;54.33;;;26.70;;
44446;SDS011;30152;52.066;5.358;2022-10-31T13:33:21;50.38;;;23.35;;
44446;SDS011;30152;52.066;5.358;2022-10-31T13:44:02;46.15;;;24.83;;
44446;SDS011;30152;52.066;5.358;2022-10-31T13:46:39;56.53;;;26.05;;
44446;SDS011;30152;52.066;5.358;2022-10-31T13:51:51;57.45;;;25.77;;
44446;SDS011;30152;52.066;5.358;2022-10-31T13:56:50;50.92;;;26.13;;
44446;SDS011;30152;52.066;5.358;2022-10-31T14:01:45;49.88;;;24.90;;
44446;SDS011;30152;52.066;5.358;2022-10-31T14:04:18;50.22;;;23.98;;
44446;SDS011;30152;52.066;5.358;2022-10-31T14:09:36;53.42;;;24.70;;
44446;SDS011;30152;52.066;5.358;2022-10-31T14:18:05;52.80;;;24.52;;
44446;SDS011;30152;52.066;5.358;2022-10-31T14:20:40;47.95;;;23.45;;
44446;SDS011;30152;52.066;5.358;2022-10-31T14:23:31;48.78;;;26.27;;
44446;SDS011;30152;52.066;5.358;2022-10-31T14:26:05;55.20;;;25.58;;
44446;SDS011;30152;52.066;5.358;2022-10-31T14:32:21;51.58;;;24.85;;
44446;SDS011;30152;52.066;5.358;2022-10-31T14:34:52;51.42;;;24.00;;
44446;SDS011;30152;52.066;5.358;2022-10-31T14:40:24;47.97;;;24.35;;
44446;SDS011;30152;52.066;5.358;2022-10-31T14:46:08;49.97;;;23.45;;
44446;SDS011;30152;52.066;5.358;2022-10-31T14:51:41;46.00;;;22.83;;
44446;SDS011;30152;52.066;5.358;2022-10-31T14:54:12;47.65;;;24.00;;
44446;SDS011;30152;52.066;5.358;2022-10-31T14:57:14;57.92;;;25.20;;
44446;SDS011;30152;52.066;5.358;2022-10-31T14:59:50;41.65;;;21.33;;
44446;SDS011;30152;52.066;5.358;2022-10-31T15:02:20;46.40;;;23.77;;
44446;SDS011;30152;52.066;5.358;2022-10-31T15:05:08;42.97;;;22.38;;
44446;SDS011;30152;52.066;5.358;2022-10-31T15:07:35;53.70;;;23.08;;
44446;SDS011;30152;52.066;5.358;2022-10-31T15:10:05;44.30;;;21.45;;
44446;SDS011;30152;52.066;5.358;2022-10-31T15:12:44;47.22;;;22.15;;
44446;SDS011;30152;52.066;5.358;2022-10-31T15:15:10;44.95;;;23.08;;
44446;SDS011;30152;52.066;5.358;2022-10-31T15:17:41;47.50;;;22.52;;
44446;SDS011;30152;52.066;5.358;2022-10-31T15:20:12;47.20;;;21.75;;
44446;SDS011;30152;52.066;5.358;2022-10-31T15:22:46;48.33;;;22.67;;
44446;SDS011;30152;52.066;5.358;2022-10-31T15:25:17;47.72;;;23.13;;
44446;SDS011;30152;52.066;5.358;2022-10-31T15:27:43;46.13;;;21.52;;
44446;SDS011;30152;52.066;5.358;2022-10-31T15:30:16;43.58;;;21.17;;
44446;SDS011;30152;52.066;5.358;2022-10-31T15:32:46;42.05;;;20.92;;
44446;SDS011;30152;52.066;5.358;2022-10-31T15:38:07;48.03;;;21.75;;
44446;SDS011;30152;52.066;5.358;2022-10-31T15:40:34;43.75;;;20.85;;
44446;SDS011;30152;52.066;5.358;2022-10-31T15:43:01;45.53;;;20.92;;
44446;SDS011;30152;52.066;5.358;2022-10-31T15:45:29;54.63;;;21.25;;
44446;SDS011;30152;52.066;5.358;2022-10-31T15:52:53;49.53;;;21.98;;
44446;SDS011;30152;52.066;5.358;2022-10-31T15:55:20;45.55;;;21.73;;
44446;SDS011;30152;52.066;5.358;2022-10-31T15:57:49;49.17;;;23.25;;
44446;SDS011;30152;52.066;5.358;2022-10-31T16:05:37;49.05;;;22.60;;
44446;SDS011;30152;52.066;5.358;2022-10-31T16:10:46;50.80;;;21.73;;
44446;SDS011;30152;52.066;5.358;2022-10-31T16:13:12;45.00;;;23.08;;
44446;SDS011;30152;52.066;5.358;2022-10-31T16:15:45;47.92;;;22.80;;
44446;SDS011;30152;52.066;5.358;2022-10-31T16:18:14;45.83;;;23.90;;
44446;SDS011;30152;52.066;5.358;2022-10-31T16:20:39;47.30;;;21.83;;
44446;SDS011;30152;52.066;5.358;2022-10-31T16:23:05;47.35;;;22.38;;
44446;SDS011;30152;52.066;5.358;2022-10-31T16:28:12;43.78;;;21.65;;
44446;SDS011;30152;52.066;5.358;2022-10-31T16:31:12;45.80;;;22.40;;
44446;SDS011;30152;52.066;5.358;2022-10-31T16:33:38;42.38;;;22.13;;
44446;SDS011;30152;52.066;5.358;2022-10-31T16:38:52;45.53;;;22.10;;
44446;SDS011;30152;52.066;5.358;2022-10-31T16:41:21;45.80;;;22.27;;
44446;SDS011;30152;52.066;5.358;2022-10-31T16:43:47;47.60;;;24.88;;
44446;SDS011;30152;52.066;5.358;2022-10-31T16:46:23;48.30;;;22.88;;
44446;SDS011;30152;52.066;5.358;2022-10-31T16:48:50;48.60;;;22.30;;
44446;SDS011;30152;52.066;5.358;2022-10-31T16:51:16;51.10;;;22.30;;
44446;SDS011;30152;52.066;5.358;2022-10-31T16:53:42;50.65;;;24.17;;
44446;SDS011;30152;52.066;5.358;2022-10-31T16:56:15;51.20;;;23.70;;
44446;SDS011;30152;52.066;5.358;2022-10-31T16:58:54;43.40;;;22.15;;
44446;SDS011;30152;52.066;5.358;2022-10-31T17:01:20;50.67;;;22.33;;
44446;SDS011;30152;52.066;5.358;2022-10-31T17:03:46;42.30;;;20.63;;
44446;SDS011;30152;52.066;5.358;2022-10-31T17:06:12;51.47;;;23.50;;
44446;SDS011;30152;52.066;5.358;2022-10-31T17:08:38;51.90;;;23.90;;
44446;SDS011;30152;52.066;5.358;2022-10-31T17:11:05;59.22;;;23.70;;
44446;SDS011;30152;52.066;5.358;2022-10-31T17:13:33;42.00;;;22.73;;
44446;SDS011;30152;52.066;5.358;2022-10-31T17:16:00;55.40;;;22.40;;
44446;SDS011;30152;52.066;5.358;2022-10-31T17:18:27;56.95;;;26.08;;
44446;SDS011;30152;52.066;5.358;2022-10-31T17:21:00;48.47;;;22.50;;
44446;SDS011;30152;52.066;5.358;2022-10-31T17:23:27;60.58;;;25.77;;
44446;SDS011;30152;52.066;5.358;2022-10-31T17:25:53;52.70;;;23.00;;
44446;SDS011;30152;52.066;5.358;2022-10-31T17:28:19;46.72;;;23.35;;
44446;SDS011;30152;52.066;5.358;2022-10-31T17:30:46;48.05;;;23.08;;
44446;SDS011;30152;52.066;5.358;2022-10-31T17:33:12;48.42;;;23.85;;
44446;SDS011;30152;52.066;5.358;2022-10-31T17:35:40;48.67;;;22.13;;
44446;SDS011;30152;52.066;5.358;2022-10-31T17:38:05;56.70;;;23.92;;
44446;SDS011;30152;52.066;5.358;2022-10-31T17:40:32;62.25;;;24.45;;
44446;SDS011;30152;52.066;5.358;2022-10-31T17:42:57;47.10;;;23.02;;
44446;SDS011;30152;52.066;5.358;2022-10-31T17:45:24;45.58;;;22.17;;
44446;SDS011;30152;52.066;5.358;2022-10-31T17:47:51;48.40;;;24.17;;
44446;SDS011;30152;52.066;5.358;2022-10-31T17:50:19;55.35;;;27.05;;
44446;SDS011;30152;52.066;5.358;2022-10-31T17:52:46;56.25;;;26.33;;
44446;SDS011;30152;52.066;5.358;2022-10-31T17:55:13;54.90;;;26.15;;
44446;SDS011;30152;52.066;5.358;2022-10-31T17:57:39;53.35;;;23.80;;
44446;SDS011;30152;52.066;5.358;2022-10-31T18:00:06;48.38;;;24.45;;
44446;SDS011;30152;52.066;5.358;2022-10-31T18:02:33;54.20;;;24.70;;
44446;SDS011;30152;52.066;5.358;2022-10-31T18:05:00;47.33;;;23.92;;
44446;SDS011;30152;52.066;5.358;2022-10-31T18:07:29;70.57;;;33.97;;
44446;SDS011;30152;52.066;5.358;2022-10-31T18:09:55;80.82;;;39.50;;
44446;SDS011;30152;52.066;5.358;2022-10-31T18:12:21;81.90;;;40.83;;
44446;SDS011;30152;52.066;5.358;2022-10-31T18:14:47;104.63;;;58.58;;
44446;SDS011;30152;52.066;5.358;2022-10-31T18:17:13;68.32;;;32.38;;
44446;SDS011;30152;52.066;5.358;2022-10-31T18:19:39;73.13;;;32.28;;
44446;SDS011;30152;52.066;5.358;2022-10-31T18:22:05;70.72;;;29.88;;
44446;SDS011;30152;52.066;5.358;2022-10-31T18:24:30;57.83;;;27.92;;
44446;SDS011;30152;52.066;5.358;2022-10-31T18:26:56;64.57;;;30.75;;
44446;SDS011;30152;52.066;5.358;2022-10-31T18:29:22;60.42;;;28.92;;
44446;SDS011;30152;52.066;5.358;2022-10-31T18:31:48;67.05;;;28.70;;
44446;SDS011;30152;52.066;5.358;2022-10-31T18:34:15;62.50;;;28.98;;
44446;SDS011;30152;52.066;5.358;2022-10-31T18:36:41;67.63;;;29.70;;
44446;SDS011;30152;52.066;5.358;2022-10-31T18:39:07;68.05;;;30.10;;
44446;SDS011;30152;52.066;5.358;2022-10-31T18:41:33;63.22;;;29.10;;
44446;SDS011;30152;52.066;5.358;2022-10-31T18:43:59;65.78;;;29.75;;
44446;SDS011;30152;52.066;5.358;2022-10-31T18:46:26;58.58;;;26.23;;
44446;SDS011;30152;52.066;5.358;2022-10-31T18:48:52;54.25;;;26.35;;
44446;SDS011;30152;52.066;5.358;2022-10-31T18:51:18;48.50;;;23.70;;
44446;SDS011;30152;52.066;5.358;2022-10-31T18:53:54;50.15;;;22.73;;
44446;SDS011;30152;52.066;5.358;2022-10-31T18:56:21;49.55;;;21.50;;
44446;SDS011;30152;52.066;5.358;2022-10-31T18:58:48;43.03;;;19.85;;
44446;SDS011;30152;52.066;5.358;2022-10-31T19:01:14;41.30;;;19.55;;
44446;SDS011;30152;52.066;5.358;2022-10-31T19:03:40;36.10;;;18.25;;
44446;SDS011;30152;52.066;5.358;2022-10-31T19:06:06;31.75;;;15.70;;
44446;SDS011;30152;52.066;5.358;2022-10-31T19:08:34;31.55;;;14.07;;
44446;SDS011;30152;52.066;5.358;2022-10-31T19:11:07;28.20;;;13.13;;
44446;SDS011;30152;52.066;5.358;2022-10-31T19:13:34;32.28;;;13.13;;
44446;SDS011;30152;52.066;5.358;2022-10-31T19:16:04;32.67;;;13.02;;
44446;SDS011;30152;52.066;5.358;2022-10-31T19:18:34;28.98;;;12.68;;
44446;SDS011;30152;52.066;5.358;2022-10-31T19:21:06;25.58;;;11.40;;
44446;SDS011;30152;52.066;5.358;2022-10-31T19:23:36;26.55;;;12.93;;
44446;SDS011;30152;52.066;5.358;2022-10-31T19:26:03;24.30;;;11.40;;
44446;SDS011;30152;52.066;5.358;2022-10-31T19:28:29;24.23;;;11.43;;
44446;SDS011;30152;52.066;5.358;2022-10-31T19:30:55;26.52;;;11.88;;
44446;SDS011;30152;52.066;5.358;2022-10-31T19:33:21;28.42;;;12.65;;
44446;SDS011;30152;52.066;5.358;2022-10-31T19:35:47;23.08;;;11.05;;
44446;SDS011;30152;52.066;5.358;2022-10-31T19:38:12;26.65;;;11.18;;
44446;SDS011;30152;52.066;5.358;2022-10-31T19:40:38;27.63;;;11.95;;
44446;SDS011;30152;52.066;5.358;2022-10-31T19:43:04;26.08;;;10.63;;
44446;SDS011;30152;52.066;5.358;2022-10-31T19:45:30;24.35;;;10.73;;
44446;SDS011;30152;52.066;5.358;2022-10-31T19:47:56;24.00;;;10.00;;
44446;SDS011;30152;52.066;5.358;2022-10-31T19:50:22;22.27;;;10.30;;
44446;SDS011;30152;52.066;5.358;2022-10-31T19:52:48;24.98;;;9.63;;
44446;SDS011;30152;52.066;5.358;2022-10-31T19:55:14;24.10;;;9.65;;
44446;SDS011;30152;52.066;5.358;2022-10-31T19:57:40;24.65;;;9.95;;
44446;SDS011;30152;52.066;5.358;2022-10-31T20:00:06;19.45;;;9.27;;
44446;SDS011;30152;52.066;5.358;2022-10-31T20:02:32;21.38;;;9.15;;
44446;SDS011;30152;52.066;5.358;2022-10-31T20:04:58;22.45;;;8.85;;
44446;SDS011;30152;52.066;5.358;2022-10-31T20:07:25;19.10;;;8.10;;
44446;SDS011;30152;52.066;5.358;2022-10-31T20:09:51;20.27;;;8.75;;
44446;SDS011;30152;52.066;5.358;2022-10-31T20:12:17;21.80;;;7.97;;
44446;SDS011;30152;52.066;5.358;2022-10-31T20:14:43;18.90;;;7.57;;
44446;SDS011;30152;52.066;5.358;2022-10-31T20:17:09;17.55;;;7.60;;
44446;SDS011;30152;52.066;5.358;2022-10-31T20:19:35;16.08;;;7.97;;
44446;SDS011;30152;52.066;5.358;2022-10-31T20:22:01;17.17;;;7.32;;
44446;SDS011;30152;52.066;5.358;2022-10-31T20:24:30;15.23;;;7.00;;
44446;SDS011;30152;52.066;5.358;2022-10-31T20:26:56;26.25;;;8.57;;
44446;SDS011;30152;52.066;5.358;2022-10-31T20:29:22;20.25;;;8.38;;
44446;SDS011;30152;52.066;5.358;2022-10-31T20:31:48;16.38;;;7.70;;
44446;SDS011;30152;52.066;5.358;2022-10-31T20:34:13;20.30;;;7.10;;
44446;SDS011;30152;52.066;5.358;2022-10-31T20:36:40;17.48;;;6.80;;
44446;SDS011;30152;52.066;5.358;2022-10-31T20:39:07;22.10;;;7.13;;
44446;SDS011;30152;52.066;5.358;2022-10-31T20:41:36;17.40;;;7.38;;
44446;SDS011;30152;52.066;5.358;2022-10-31T20:44:03;21.05;;;6.70;;
44446;SDS011;30152;52.066;5.358;2022-10-31T20:46:29;22.05;;;7.53;;
44446;SDS011;30152;52.066;5.358;2022-10-31T20:48:56;17.20;;;7.78;;
44446;SDS011;30152;52.066;5.358;2022-10-31T20:51:26;15.18;;;7.30;;
44446;SDS011;30152;52.066;5.358;2022-10-31T20:53:53;16.25;;;6.82;;
44446;SDS011;30152;52.066;5.358;2022-10-31T20:56:23;16.73;;;6.80;;
44446;SDS011;30152;52.066;5.358;2022-10-31T20:58:49;19.20;;;7.10;;
44446;SDS011;30152;52.066;5.358;2022-10-31T21:03:44;22.10;;;7.07;;
44446;SDS011;30152;52.066;5.358;2022-10-31T21:06:11;14.15;;;6.57;;
44446;SDS011;30152;52.066;5.358;2022-10-31T21:08:37;17.95;;;6.60;;
44446;SDS011;30152;52.066;5.358;2022-10-31T21:11:05;19.95;;;7.63;;
44446;SDS011;30152;52.066;5.358;2022-10-31T21:13:36;22.13;;;6.35;;
44446;SDS011;30152;52.066;5.358;2022-10-31T21:16:06;20.13;;;7.18;;
44446;SDS011;30152;52.066;5.358;2022-10-31T21:18:35;15.55;;;6.97;;
44446;SDS011;30152;52.066;5.358;2022-10-31T21:21:05;15.68;;;6.82;;
44446;SDS011;30152;52.066;5.358;2022-10-31T21:23:32;15.02;;;6.15;;
44446;SDS011;30152;52.066;5.358;2022-10-31T21:25:58;17.80;;;6.50;;
44446;SDS011;30152;52.066;5.358;2022-10-31T21:28:29;21.88;;;7.35;;
